Time;durP1;ratioP1;P1;durP2;ratioP2;P2;SDS_P1;SDS_P2;PMS_P1;PMS_P2;Temp;Humidity;BMP_temperature;BMP_pressure;BME280_temperature;BME280_humidity;BME280_pressure;Samples;Min_cycle;Max_cycle;Signal;HPM_P1;HPM_P2
2023/09/06 00:01:43;;;;;;;8.07;5.80;;;;;;;19.95;96.40;95338.06;5096165;28;20447;-78
2023/09/06 00:04:10;;;;;;;6.17;5.57;;;;;;;19.93;96.45;95336.53;5095829;28;20444;-78
2023/09/06 00:06:37;;;;;;;5.50;5.00;;;;;;;19.97;96.16;95336.03;5095883;28;20766;-78
2023/09/06 00:09:04;;;;;;;5.70;5.10;;;;;;;19.91;96.32;95325.22;5043797;28;20441;-78
2023/09/06 00:11:33;;;;;;;5.73;5.20;;;;;;;19.85;96.36;95324.13;5095704;28;20472;-78
2023/09/06 00:14:00;;;;;;;7.87;5.13;;;;;;;19.85;96.23;95318.78;5095745;28;20487;-78
2023/09/06 00:16:27;;;;;;;6.70;5.30;;;;;;;19.84;96.24;95327.78;5095843;28;20463;-79
2023/09/06 00:18:57;;;;;;;5.47;4.97;;;;;;;19.86;96.56;95328.44;5095781;28;20450;-78
2023/09/06 00:21:45;;;;;;;5.20;4.80;;;;;;;19.90;96.06;95323.56;5095900;28;20490;-78
2023/09/06 00:24:13;;;;;;;6.20;5.30;;;;;;;19.94;95.87;95327.53;5095560;28;20908;-78
2023/09/06 00:26:40;;;;;;;5.20;4.70;;;;;;;20.03;95.27;95337.16;5095515;28;20451;-78
2023/09/06 00:29:07;;;;;;;5.87;5.00;;;;;;;20.04;94.93;95339.66;5095495;28;20436;-78
2023/09/06 00:31:34;;;;;;;4.97;4.57;;;;;;;20.04;94.73;95329.00;5095469;28;20806;-78
2023/09/06 00:34:03;;;;;;;4.77;4.37;;;;;;;20.02;94.39;95324.84;5096200;28;20973;-78
2023/09/06 00:36:32;;;;;;;6.70;5.30;;;;;;;20.01;94.37;95326.69;5097720;28;20483;-79
2023/09/06 00:38:59;;;;;;;5.03;4.70;;;;;;;20.04;94.11;95325.50;5096254;28;20451;-78
2023/09/06 00:41:27;;;;;;;4.90;4.47;;;;;;;19.98;94.06;95320.88;5095681;28;20438;-78
2023/09/06 00:43:54;;;;;;;6.07;4.70;;;;;;;19.93;93.86;95316.06;5096228;28;20443;-78
2023/09/06 00:46:21;;;;;;;5.10;4.60;;;;;;;19.92;94.00;95324.22;5095164;28;20454;-78
2023/09/06 00:48:50;;;;;;;10.00;4.97;;;;;;;19.87;93.87;95313.28;5095348;28;20866;-78
2023/09/06 00:51:19;;;;;;;6.00;4.80;;;;;;;19.95;93.77;95319.41;5095464;28;20527;-78
2023/09/06 00:53:48;;;;;;;5.20;4.80;;;;;;;19.96;93.78;95314.91;5095070;28;20467;-78
2023/09/06 00:56:17;;;;;;;4.87;4.47;;;;;;;19.91;93.65;95312.75;5095166;28;20489;-78
2023/09/06 00:58:44;;;;;;;5.23;4.83;;;;;;;19.88;93.93;95307.78;5095252;28;20491;-78
2023/09/06 01:01:11;;;;;;;6.10;5.50;;;;;;;19.89;93.92;95300.63;5042619;28;20922;-78
2023/09/06 01:03:40;;;;;;;5.03;4.53;;;;;;;19.90;94.21;95297.78;5095275;28;20443;-78
2023/09/06 01:06:14;;;;;;;5.57;4.97;;;;;;;19.85;94.14;95301.97;5094223;28;20440;-78
2023/09/06 01:08:46;;;;;;;4.93;4.47;;;;;;;19.81;94.44;95306.84;5094930;28;20483;-78
2023/09/06 01:11:20;;;;;;;5.60;4.80;;;;;;;19.75;94.36;95307.53;5094682;28;20919;-77
2023/09/06 01:13:49;;;;;;;5.17;4.77;;;;;;;19.68;94.51;95302.09;5094875;28;20446;-78
2023/09/06 01:16:21;;;;;;;5.53;5.00;;;;;;;19.73;94.63;95309.56;5095028;28;20493;-78
2023/09/06 01:18:48;;;;;;;5.47;4.97;;;;;;;19.63;94.88;95307.09;5094955;28;20483;-78
2023/09/06 01:21:18;;;;;;;5.67;5.20;;;;;;;19.61;95.26;95306.44;5042683;28;20447;-77
2023/09/06 01:23:48;;;;;;;6.13;5.00;;;;;;;19.64;95.37;95306.09;5094730;28;20439;-78
2023/09/06 01:26:16;;;;;;;4.73;4.33;;;;;;;19.68;95.18;95298.59;5094429;28;20917;-77
2023/09/06 01:28:43;;;;;;;6.30;5.70;;;;;;;19.71;94.38;95306.25;5042914;28;20447;-78
2023/09/06 01:31:10;;;;;;;6.40;5.27;;;;;;;19.69;94.20;95311.75;5041944;28;20444;-77
2023/09/06 01:33:37;;;;;;;5.47;4.00;;;;;;;19.65;94.34;95313.06;5094736;28;20840;-78
2023/09/06 01:36:04;;;;;;;10.30;5.07;;;;;;;19.63;94.55;95303.59;5094613;28;20479;-78
2023/09/06 01:38:32;;;;;;;6.67;5.07;;;;;;;19.66;94.28;95308.56;5042239;28;20909;-79
2023/09/06 01:41:03;;;;;;;7.60;4.23;;;;;;;19.64;94.42;95295.44;5094387;28;20447;-78
2023/09/06 01:43:31;;;;;;;4.80;4.40;;;;;;;19.67;93.97;95307.59;5094383;28;20444;-78
2023/09/06 01:45:58;;;;;;;5.37;4.87;;;;;;;19.61;93.34;95306.44;5043020;28;20534;-78
2023/09/06 01:48:25;;;;;;;5.87;5.37;;;;;;;19.54;93.67;95305.50;5094246;28;20926;-79
2023/09/06 01:50:53;;;;;;;9.87;5.83;;;;;;;19.50;94.15;95293.50;5094205;28;20446;-78
2023/09/06 01:53:22;;;;;;;6.10;5.60;;;;;;;19.52;93.96;95296.00;5094351;28;20475;-78
2023/09/06 01:55:50;;;;;;;7.30;4.40;;;;;;;19.49;94.50;95302.50;5094025;28;20479;-78
2023/09/06 01:58:18;;;;;;;5.80;5.27;;;;;;;19.48;94.63;95292.84;5094190;28;20506;-78
2023/09/06 02:00:46;;;;;;;5.90;5.40;;;;;;;19.46;94.21;95292.22;5094162;28;20936;-78
2023/09/06 02:03:15;;;;;;;5.03;4.53;;;;;;;19.44;94.32;95283.56;5093753;28;20447;-78
2023/09/06 02:05:42;;;;;;;6.63;6.13;;;;;;;19.41;94.62;95290.06;5093676;28;20444;-78
2023/09/06 02:08:09;;;;;;;6.03;5.13;;;;;;;19.37;94.42;95294.09;5093666;28;20511;-78
2023/09/06 02:10:35;;;;;;;5.70;5.30;;;;;;;19.48;94.16;95295.53;5094039;28;20445;-78
2023/09/06 02:13:02;;;;;;;5.63;5.00;;;;;;;19.43;93.80;95287.22;5093926;28;20442;-78
2023/09/06 02:15:30;;;;;;;8.57;4.97;;;;;;;19.40;93.85;95296.41;5093897;28;20480;-78
2023/09/06 02:17:57;;;;;;;4.50;4.20;;;;;;;19.43;94.23;95303.22;5093513;28;20440;-78
2023/09/06 02:20:25;;;;;;;4.77;4.40;;;;;;;19.46;94.07;95300.19;5093437;28;20451;-78
2023/09/06 02:22:55;;;;;;;4.73;4.43;;;;;;;19.47;93.65;95299.19;5093434;28;20448;-78
2023/09/06 02:25:25;;;;;;;4.87;4.47;;;;;;;19.50;93.25;95299.66;5041044;28;20482;-78
2023/09/06 02:27:52;;;;;;;7.03;4.93;;;;;;;19.49;93.01;95292.69;5093672;28;20877;-78
2023/09/06 02:30:19;;;;;;;6.00;5.40;;;;;;;19.49;92.72;95302.50;5093376;28;20442;-78
2023/09/06 02:32:48;;;;;;;5.90;5.23;;;;;;;19.45;92.89;95306.53;5057768;28;20437;-78
2023/09/06 02:35:15;;;;;;;6.70;5.20;;;;;;;19.46;93.16;95306.34;5093108;28;20585;-78
2023/09/06 02:37:42;;;;;;;6.73;5.57;;;;;;;19.39;92.93;95301.91;5093523;28;20918;-78
2023/09/06 02:40:12;;;;;;;7.00;5.10;;;;;;;19.33;93.13;95305.22;5093064;28;20448;-78
2023/09/06 02:42:39;;;;;;;6.20;5.70;;;;;;;19.32;93.29;95301.75;5093063;28;20454;-78
2023/09/06 02:45:09;;;;;;;5.27;4.77;;;;;;;19.35;93.03;95300.56;5074221;28;20911;-78
2023/09/06 02:47:39;;;;;;;10.70;5.13;;;;;;;19.28;92.90;95294.28;5092913;28;20781;-78
2023/09/06 02:50:11;;;;;;;6.70;6.10;;;;;;;19.29;92.59;95301.25;5093292;28;20447;-78
2023/09/06 02:52:38;;;;;;;5.90;5.40;;;;;;;19.28;92.80;95288.97;5093016;28;20484;-78
2023/09/06 02:55:10;;;;;;;11.50;4.80;;;;;;;19.23;92.94;95292.16;5093300;28;20486;-79
2023/09/06 02:57:38;;;;;;;6.93;5.90;;;;;;;19.19;92.92;95301.47;5092856;28;20448;-78
2023/09/06 03:00:18;;;;;;;5.53;5.07;;;;;;;19.22;93.63;95301.13;5092708;28;20440;-78
2023/09/06 03:02:46;;;;;;;5.83;5.30;;;;;;;19.28;93.10;95307.59;5027005;28;20520;-78
2023/09/06 03:05:17;;;;;;;6.03;5.53;;;;;;;19.29;92.99;95306.59;5093002;28;20455;-77
2023/09/06 03:07:49;;;;;;;7.27;5.20;;;;;;;19.32;92.94;95311.56;5092497;28;20450;-78
2023/09/06 03:10:19;;;;;;;5.37;4.93;;;;;;;19.31;92.61;95304.56;5091224;28;20493;-77
2023/09/06 03:12:47;;;;;;;7.00;5.47;;;;;;;19.33;92.65;95316.69;5087631;28;20798;-78
2023/09/06 03:15:15;;;;;;;10.80;6.77;;;;;;;19.32;92.64;95307.06;5092786;28;20592;-78
2023/09/06 03:17:46;;;;;;;6.90;6.30;;;;;;;19.29;93.11;95311.91;5092809;28;20450;-78
2023/09/06 03:20:31;;;;;;;6.40;5.63;;;;;;;19.30;93.17;95308.25;5092875;28;20446;-78
2023/09/06 03:22:58;;;;;;;7.30;5.70;;;;;;;19.36;93.09;95307.53;5092270;28;20462;-78
2023/09/06 03:25:26;;;;;;;8.83;5.40;;;;;;;19.43;92.88;95309.34;5092668;28;20475;-78
2023/09/06 03:27:59;;;;;;;8.17;6.60;;;;;;;19.45;92.50;95311.84;5092359;28;20453;-78
2023/09/06 03:30:27;;;;;;;5.07;4.57;;;;;;;19.48;92.48;95311.50;5094534;28;20453;-78
2023/09/06 03:32:54;;;;;;;5.43;4.93;;;;;;;19.49;92.22;95310.50;5096075;28;20451;-78
2023/09/06 03:35:22;;;;;;;7.10;6.47;;;;;;;19.53;92.27;95317.16;5096069;28;20521;-78
2023/09/06 03:37:50;;;;;;;7.83;5.93;;;;;;;19.55;91.74;95309.81;5095951;28;20512;-78
2023/09/06 03:43:04;;;;;;;6.10;5.50;;;;;;;19.57;91.67;95309.63;5095800;28;20445;-78
2023/09/06 03:45:31;;;;;;;10.77;5.67;;;;;;;19.59;91.45;95308.44;5096250;28;20445;-78
2023/09/06 03:47:58;;;;;;;8.93;5.77;;;;;;;19.59;91.68;95320.94;5096199;28;20453;-78
2023/09/06 03:50:26;;;;;;;6.63;6.03;;;;;;;19.57;91.46;95318.44;5096660;28;20449;-78
2023/09/06 03:52:53;;;;;;;6.50;5.90;;;;;;;19.56;91.13;95318.63;5096849;28;20469;-78
2023/09/06 03:55:20;;;;;;;9.03;5.90;;;;;;;19.57;91.54;95318.44;5096523;28;20535;-78
2023/09/06 03:57:47;;;;;;;7.87;6.40;;;;;;;19.57;91.40;95320.28;5096662;28;20444;-78
2023/09/06 04:00:31;;;;;;;9.40;5.50;;;;;;;19.56;91.60;95319.47;5044051;28;20733;-78
2023/09/06 04:02:58;;;;;;;7.10;5.60;;;;;;;19.59;91.46;95319.09;5096596;28;20439;-78
2023/09/06 04:05:27;;;;;;;6.87;6.27;;;;;;;19.52;90.78;95327.94;5096603;28;20535;-78
2023/09/06 04:07:56;;;;;;;7.60;5.40;;;;;;;19.38;91.39;95327.69;5096090;28;20445;-78
2023/09/06 04:10:23;;;;;;;7.33;6.60;;;;;;;19.28;92.19;95326.22;5096813;28;20447;-78
2023/09/06 04:12:53;;;;;;;7.10;6.40;;;;;;;19.16;93.16;95326.59;5096273;28;20454;-78
2023/09/06 04:15:22;;;;;;;6.70;5.90;;;;;;;19.06;93.93;95325.13;5096128;28;20595;-78
2023/09/06 04:17:52;;;;;;;8.80;7.23;;;;;;;18.98;94.50;95323.31;5096055;28;20440;-78
2023/09/06 04:20:23;;;;;;;6.43;5.70;;;;;;;19.00;95.83;95320.50;5096063;28;20450;-80
2023/09/06 04:22:52;;;;;;;7.50;5.20;;;;;;;19.91;91.03;95330.56;5061895;28;20446;-77
2023/09/06 04:25:20;;;;;;;6.87;6.30;;;;;;;19.97;91.03;95322.72;5096180;28;20507;-77
2023/09/06 04:27:47;;;;;;;8.17;5.80;;;;;;;19.98;89.76;95336.88;5095922;28;20444;-77
2023/09/06 04:30:15;;;;;;;6.50;6.00;;;;;;;19.97;89.73;95327.22;5095802;28;20436;-75
2023/09/06 04:32:44;;;;;;;6.80;6.20;;;;;;;20.00;90.24;95334.84;5096062;28;20451;-78
2023/09/06 04:35:11;;;;;;;8.93;6.23;;;;;;;19.99;88.91;95335.88;5095293;28;20472;-79
2023/09/06 04:37:38;;;;;;;8.50;6.70;;;;;;;19.88;89.16;95338.91;5095320;28;20809;-78
2023/09/06 04:40:11;;;;;;;8.53;7.50;;;;;;;19.75;90.71;95340.31;5095674;28;20448;-79
2023/09/06 04:42:39;;;;;;;12.63;10.93;;;;;;;19.76;93.06;95341.16;5096094;28;20444;-78
2023/09/06 04:45:07;;;;;;;12.63;10.07;;;;;;;19.94;92.74;95336.38;5096595;28;20783;-77
2023/09/06 04:47:34;;;;;;;10.30;6.67;;;;;;;19.98;90.82;95340.38;5095768;28;20935;-78
2023/09/06 04:50:03;;;;;;;25.27;9.53;;;;;;;19.88;90.25;95338.91;5044458;28;20439;-78
2023/09/06 04:52:30;;;;;;;8.63;6.63;;;;;;;19.75;90.96;95340.31;5095967;28;21061;-78
2023/09/06 04:54:57;;;;;;;20.13;12.50;;;;;;;19.61;92.21;95340.22;5095593;28;20447;-78
2023/09/06 04:57:25;;;;;;;22.97;13.73;;;;;;;19.85;94.99;95349.91;5095643;28;20589;-78
2023/09/06 04:59:54;;;;;;;13.73;10.30;;;;;;;20.32;92.47;95355.94;5095524;28;20468;-78
2023/09/06 05:02:21;;;;;;;18.07;10.03;;;;;;;20.57;90.06;95358.44;5095260;28;20496;-79
2023/09/06 05:04:47;;;;;;;12.00;9.20;;;;;;;20.86;88.41;95355.81;5095162;28;20449;-78
2023/09/06 05:07:14;;;;;;;19.43;10.63;;;;;;;21.11;86.85;95363.59;5094890;28;20449;-78
2023/09/06 05:09:41;;;;;;;13.53;7.90;;;;;;;21.29;86.01;95364.06;5095424;28;20788;-78
2023/09/06 05:12:08;;;;;;;24.10;15.60;;;;;;;21.36;85.34;95367.66;5095232;28;20775;-78
2023/09/06 05:14:36;;;;;;;22.57;13.87;;;;;;;21.53;85.22;95366.44;5095013;28;20439;-78
2023/09/06 05:17:03;;;;;;;10.83;7.70;;;;;;;21.58;84.78;95366.72;5094973;28;20484;-79
2023/09/06 05:19:30;;;;;;;11.93;9.37;;;;;;;21.68;83.57;95378.94;5094903;28;20439;-78
2023/09/06 05:21:57;;;;;;;9.73;7.83;;;;;;;21.77;83.88;95376.00;5094583;28;20454;-78
2023/09/06 05:24:23;;;;;;;33.13;18.13;;;;;;;21.85;82.97;95377.72;5095142;28;20455;-78
2023/09/06 05:26:50;;;;;;;29.97;18.07;;;;;;;21.93;81.68;95383.78;5095021;28;20464;-78
2023/09/06 05:29:18;;;;;;;18.97;10.50;;;;;;;21.99;81.57;95374.22;5095286;28;20560;-78
2023/09/06 05:31:46;;;;;;;9.33;7.50;;;;;;;22.15;79.78;95383.84;5094973;28;20450;-77
2023/09/06 05:34:13;;;;;;;10.43;7.10;;;;;;;22.11;79.74;95388.75;5094410;28;20443;-77
2023/09/06 05:36:40;;;;;;;7.30;6.60;;;;;;;21.92;80.03;95381.31;5094648;28;20486;-77
2023/09/06 05:39:07;;;;;;;9.50;6.50;;;;;;;21.72;81.30;95388.28;5094641;28;20769;-77
2023/09/06 05:41:34;;;;;;;9.33;6.47;;;;;;;21.53;83.68;95393.16;5094618;28;20507;-77
2023/09/06 05:44:01;;;;;;;8.30;6.73;;;;;;;21.43;83.26;95394.47;5094304;28;20437;-77
2023/09/06 05:46:27;;;;;;;7.07;6.37;;;;;;;21.33;83.60;95390.22;5094480;28;20473;-77
2023/09/06 05:48:55;;;;;;;8.10;6.33;;;;;;;21.27;84.18;95390.94;5094434;28;20439;-76
2023/09/06 05:51:22;;;;;;;12.30;7.47;;;;;;;21.31;84.12;95386.88;5094267;28;20932;-77
2023/09/06 05:53:49;;;;;;;11.83;6.80;;;;;;;21.35;84.31;95384.69;5093843;28;20468;-77
2023/09/06 05:56:16;;;;;;;7.00;6.13;;;;;;;21.45;84.16;95395.94;5094189;28;20486;-77
2023/09/06 05:58:43;;;;;;;10.00;6.30;;;;;;;21.48;83.16;95398.22;5094168;28;20805;-77
2023/09/06 06:01:11;;;;;;;10.53;6.20;;;;;;;21.51;83.34;95403.19;5094305;28;20832;-77
2023/09/06 06:03:38;;;;;;;8.40;7.57;;;;;;;21.52;83.54;95404.84;5094080;28;20450;-77
2023/09/06 06:06:10;;;;;;;9.97;6.50;;;;;;;21.58;83.42;95395.28;5094086;28;20452;-77
2023/09/06 06:08:38;;;;;;;7.63;6.27;;;;;;;21.66;82.83;95400.50;5094196;28;20469;-77
2023/09/06 06:11:05;;;;;;;8.33;6.00;;;;;;;21.68;81.75;95416.34;5094046;28;20616;-77
2023/09/06 06:13:33;;;;;;;7.40;6.67;;;;;;;21.71;81.80;95422.16;5094102;28;20454;-77
2023/09/06 06:16:00;;;;;;;7.03;5.93;;;;;;;21.64;81.94;95416.72;5093589;28;20493;-77
2023/09/06 06:18:27;;;;;;;7.40;6.20;;;;;;;21.67;82.77;95420.03;5093748;28;20457;-77
2023/09/06 06:20:54;;;;;;;10.30;7.10;;;;;;;21.66;82.63;95419.19;5093666;28;20921;-77
2023/09/06 06:23:22;;;;;;;6.37;5.73;;;;;;;21.75;82.95;95419.94;5058344;28;20455;-77
2023/09/06 06:25:49;;;;;;;6.43;5.83;;;;;;;21.86;82.42;95428.31;5094053;28;20466;-80
2023/09/06 06:28:16;;;;;;;8.07;6.07;;;;;;;22.15;81.10;95431.97;5093763;28;20443;-77
2023/09/06 06:30:43;;;;;;;6.70;5.60;;;;;;;22.18;80.01;95427.06;5093285;28;20442;-77
2023/09/06 06:33:09;;;;;;;17.07;7.57;;;;;;;22.20;79.68;95425.03;5093429;28;20947;-76
2023/09/06 06:35:36;;;;;;;11.03;6.90;;;;;;;22.16;80.51;95438.97;5093406;28;20817;-77
2023/09/06 06:38:03;;;;;;;7.50;6.70;;;;;;;22.08;80.20;95441.78;5093401;28;21061;-77
2023/09/06 06:40:34;;;;;;;8.53;7.00;;;;;;;21.97;81.72;95437.69;5093366;28;20458;-76
2023/09/06 06:43:01;;;;;;;7.93;7.00;;;;;;;21.93;81.71;95445.25;5092961;28;20951;-77
2023/09/06 06:45:28;;;;;;;12.70;7.30;;;;;;;21.70;82.93;95447.22;5057941;28;20463;-76
2023/09/06 06:47:55;;;;;;;9.07;6.37;;;;;;;21.71;85.09;95448.06;5093083;28;20781;-76
2023/09/06 06:50:22;;;;;;;13.13;7.20;;;;;;;21.75;87.58;95449.34;5093402;28;20442;-76
2023/09/06 06:52:49;;;;;;;16.10;7.50;;;;;;;21.71;87.88;95446.22;5093051;28;20479;-77
2023/09/06 06:55:15;;;;;;;19.10;7.87;;;;;;;21.58;85.49;95451.34;5093181;28;20447;-82
2023/09/06 06:57:44;;;;;;;19.90;8.83;;;;;;;21.50;85.43;95457.63;5086531;28;20574;-77
2023/09/06 07:00:12;;;;;;;12.60;7.80;;;;;;;21.37;85.95;95453.91;5074476;28;20450;-77
2023/09/06 07:02:39;;;;;;;10.93;8.07;;;;;;;21.26;85.64;95457.88;5092815;28;20429;-77
2023/09/06 07:05:06;;;;;;;9.43;7.40;;;;;;;21.17;86.41;95446.41;5091959;28;20459;-77
2023/09/06 07:07:33;;;;;;;8.53;5.90;;;;;;;21.15;86.26;95450.28;5057450;28;20922;-77
2023/09/06 07:10:00;;;;;;;12.60;10.33;;;;;;;21.01;85.92;95447.38;5076852;28;20780;-77
2023/09/06 07:12:26;;;;;;;15.20;11.57;;;;;;;20.99;86.67;95452.06;5081930;28;20438;-77
2023/09/06 07:14:55;;;;;;;10.70;9.60;;;;;;;20.98;86.32;95452.25;5092919;28;20457;-77
2023/09/06 07:17:22;;;;;;;15.80;9.40;;;;;;;20.96;87.16;95452.44;5092666;28;20496;-77
2023/09/06 07:19:49;;;;;;;15.33;9.27;;;;;;;20.94;86.71;95448.28;5092922;28;20434;-77
2023/09/06 07:22:16;;;;;;;11.27;7.87;;;;;;;20.94;87.24;95459.78;5092714;28;20856;-77
2023/09/06 07:24:43;;;;;;;10.00;8.37;;;;;;;20.97;87.16;95453.25;5092338;28;20446;-77
2023/09/06 07:27:10;;;;;;;11.57;7.17;;;;;;;20.98;87.49;95445.09;5079797;28;20456;-77
2023/09/06 07:29:36;;;;;;;10.00;9.00;;;;;;;21.05;86.92;95447.84;5092725;28;20959;-75
2023/09/06 07:32:05;;;;;;;10.10;7.07;;;;;;;20.99;83.14;95452.06;5092539;28;20454;-77
2023/09/06 07:34:32;;;;;;;9.97;7.80;;;;;;;21.01;82.25;95451.91;5092773;28;20434;-77
2023/09/06 07:36:59;;;;;;;14.40;10.37;;;;;;;21.09;83.22;95448.31;5056900;28;20486;-77
2023/09/06 07:39:25;;;;;;;11.23;8.50;;;;;;;21.17;84.28;95442.91;5081616;28;20474;-77
2023/09/06 07:41:53;;;;;;;9.00;6.47;;;;;;;21.21;83.28;95442.38;5057031;28;20480;-77
2023/09/06 07:44:20;;;;;;;6.87;6.20;;;;;;;21.34;82.60;95444.44;5081436;28;20521;-77
2023/09/06 07:46:48;;;;;;;13.47;9.73;;;;;;;21.45;83.10;95445.84;5072594;28;20532;-77
2023/09/06 07:49:16;;;;;;;8.20;7.23;;;;;;;21.65;82.67;95441.59;5092458;28;20505;-77
2023/09/06 07:51:43;;;;;;;15.50;7.20;;;;;;;21.91;82.35;95435.75;5092481;28;20928;-77
2023/09/06 07:54:10;;;;;;;7.57;5.90;;;;;;;22.18;80.00;95436.94;5092583;28;20969;-77
2023/09/06 07:56:39;;;;;;;6.97;6.37;;;;;;;22.40;78.06;95443.16;5092470;28;20498;-76
2023/09/06 07:59:09;;;;;;;14.87;7.50;;;;;;;22.58;74.29;95448.91;5092551;28;20925;-77
2023/09/06 08:01:36;;;;;;;10.73;6.60;;;;;;;22.80;74.39;95450.56;5092723;28;20441;-77
2023/09/06 08:04:03;;;;;;;7.40;6.70;;;;;;;22.98;73.02;95452.00;5092640;28;20440;-77
2023/09/06 08:06:31;;;;;;;8.83;6.67;;;;;;;23.28;70.70;95448.13;5092596;28;20454;-77
2023/09/06 08:08:58;;;;;;;7.83;6.43;;;;;;;23.56;69.63;95450.81;5092678;28;20450;-77
2023/09/06 08:11:25;;;;;;;8.67;6.20;;;;;;;23.95;69.40;95458.25;5092501;28;20856;-77
2023/09/06 08:13:52;;;;;;;10.40;6.93;;;;;;;24.31;68.48;95457.22;5092388;28;20829;-77
2023/09/06 08:16:19;;;;;;;7.40;6.70;;;;;;;24.46;67.85;95454.34;5094542;28;20447;-77
2023/09/06 08:18:46;;;;;;;10.43;6.23;;;;;;;24.46;64.63;95452.50;5096158;28;20440;-77
2023/09/06 08:21:13;;;;;;;9.43;6.27;;;;;;;24.41;65.05;95449.59;5096097;28;20461;-77
2023/09/06 08:23:43;;;;;;;9.57;6.77;;;;;;;24.30;66.17;95455.56;5095952;28;20450;-77
2023/09/06 08:26:11;;;;;;;12.33;7.53;;;;;;;24.16;65.43;95454.63;5096422;28;20447;-77
2023/09/06 08:28:38;;;;;;;8.13;7.37;;;;;;;24.04;65.14;95448.19;5096003;28;20479;-76
2023/09/06 08:31:04;;;;;;;8.77;6.53;;;;;;;23.93;67.16;95444.22;5096166;28;20439;-76
2023/09/06 08:33:32;;;;;;;8.13;6.70;;;;;;;23.89;67.27;95442.97;5096103;28;20443;-77
2023/09/06 08:36:04;;;;;;;12.90;6.47;;;;;;;23.75;66.76;95438.56;5096106;28;20469;-77
2023/09/06 08:38:32;;;;;;;9.67;7.53;;;;;;;23.73;67.77;95440.63;5047752;28;20493;-76
2023/09/06 08:41:01;;;;;;;8.57;6.33;;;;;;;23.75;67.68;95441.25;5097180;28;20447;-77
2023/09/06 08:43:34;;;;;;;11.47;7.03;;;;;;;23.75;65.90;95441.25;5095808;28;20442;-77
2023/09/06 08:46:03;;;;;;;6.57;5.93;;;;;;;23.77;68.50;95447.25;5095909;28;20443;-77
2023/09/06 08:48:33;;;;;;;7.37;6.00;;;;;;;23.85;65.78;95438.19;5095959;28;20442;-76
2023/09/06 08:51:01;;;;;;;11.57;7.47;;;;;;;23.88;66.18;95444.00;5095690;28;20794;-77
2023/09/06 08:53:28;;;;;;;11.10;6.53;;;;;;;23.90;67.10;95441.94;5095763;28;20471;-77
2023/09/06 08:55:55;;;;;;;6.80;6.10;;;;;;;23.95;67.37;95454.75;5094655;28;20451;-77
2023/09/06 08:58:24;;;;;;;6.60;6.10;;;;;;;23.95;66.20;95455.56;5095693;28;20497;-79
2023/09/06 09:00:52;;;;;;;9.10;6.60;;;;;;;23.96;65.56;95448.34;5095491;28;20465;-81
2023/09/06 09:03:18;;;;;;;8.37;5.93;;;;;;;24.02;67.36;95451.09;5095316;28;20945;-77
2023/09/06 09:05:45;;;;;;;8.27;7.47;;;;;;;24.05;67.40;95441.81;5095434;28;20445;-77
2023/09/06 09:08:12;;;;;;;8.20;6.50;;;;;;;24.02;66.56;95442.22;5095184;28;20443;-77
2023/09/06 09:10:40;;;;;;;10.00;6.93;;;;;;;24.04;66.80;95442.84;5095030;28;20443;-77
2023/09/06 09:13:11;;;;;;;7.20;6.50;;;;;;;24.00;66.73;95445.09;5094916;28;20455;-77
2023/09/06 09:15:40;;;;;;;7.73;6.67;;;;;;;23.94;66.34;95443.19;5059743;28;20463;-77
2023/09/06 09:18:13;;;;;;;10.17;7.20;;;;;;;23.89;66.49;95436.78;5094705;28;20486;-77
2023/09/06 09:20:41;;;;;;;10.43;7.30;;;;;;;23.84;65.11;95444.59;5094423;28;20438;-78
2023/09/06 09:23:13;;;;;;;11.70;6.90;;;;;;;23.74;64.85;95439.59;5094063;28;20434;-77
2023/09/06 09:25:47;;;;;;;7.33;6.60;;;;;;;23.88;64.38;95435.94;5093854;28;20865;-77
2023/09/06 09:28:15;;;;;;;8.50;7.60;;;;;;;24.04;64.20;95435.63;5057306;28;20470;-77
2023/09/06 09:30:43;;;;;;;8.50;7.23;;;;;;;24.29;64.75;95437.81;5094052;28;20451;-77
2023/09/06 09:33:10;;;;;;;8.47;6.80;;;;;;;24.38;62.27;95436.59;5094197;28;20465;-77
2023/09/06 09:35:40;;;;;;;7.60;6.90;;;;;;;24.50;61.39;95437.66;5093691;28;20926;-76
2023/09/06 09:38:11;;;;;;;9.23;6.70;;;;;;;24.62;61.90;95432.53;5093462;28;20491;-75
2023/09/06 09:40:38;;;;;;;7.70;6.83;;;;;;;24.57;61.33;95411.66;5093553;28;20856;-75
2023/09/06 09:43:05;;;;;;;6.83;6.03;;;;;;;24.75;61.66;95429.03;5093516;28;20439;-76
2023/09/06 09:45:41;;;;;;;12.10;8.07;;;;;;;24.85;64.52;95416.00;5093591;28;20440;-76
2023/09/06 09:48:10;;;;;;;9.23;7.63;;;;;;;24.96;63.13;95424.31;5093324;28;20526;-76
2023/09/06 09:50:38;;;;;;;7.87;6.67;;;;;;;25.02;62.34;95422.69;5057681;28;20861;-76
2023/09/06 09:53:08;;;;;;;8.83;7.70;;;;;;;25.15;61.71;95432.59;5104913;28;20525;-75
2023/09/06 09:55:42;;;;;;;9.30;7.07;;;;;;;25.22;61.32;95425.38;5113664;28;20445;-76
2023/09/06 09:58:11;;;;;;;10.17;7.20;;;;;;;25.32;62.18;95423.09;5113487;28;20486;-76
2023/09/06 10:00:41;;;;;;;7.13;6.50;;;;;;;25.39;60.47;95429.28;5061194;28;20491;-76
2023/09/06 10:03:10;;;;;;;10.60;7.37;;;;;;;25.48;61.05;95425.34;5113380;28;20431;-75
2023/09/06 10:05:38;;;;;;;13.20;7.60;;;;;;;25.46;60.76;95419.34;5113616;28;20442;-75
2023/09/06 10:08:08;;;;;;;8.30;7.50;;;;;;;25.38;60.98;95418.72;5077379;28;20944;-76
2023/09/06 10:10:39;;;;;;;22.60;7.67;;;;;;;25.26;59.52;95424.75;5113363;28;20854;-76
2023/09/06 10:13:07;;;;;;;8.93;6.97;;;;;;;25.18;60.96;95413.41;5113168;28;20542;-76
2023/09/06 10:15:35;;;;;;;8.77;7.50;;;;;;;25.06;62.14;95413.19;5113634;28;20466;-76
2023/09/06 10:18:03;;;;;;;13.80;8.37;;;;;;;24.92;61.91;95408.81;5113389;28;20483;-76
2023/09/06 10:20:34;;;;;;;10.07;7.13;;;;;;;24.71;63.58;95404.47;5060353;28;20519;-76
2023/09/06 10:23:02;;;;;;;8.73;7.37;;;;;;;24.85;65.51;95398.06;5113296;28;20447;-77
2023/09/06 10:25:28;;;;;;;8.10;7.40;;;;;;;24.88;62.68;95399.53;5060604;28;20435;-77
2023/09/06 10:27:57;;;;;;;7.77;7.07;;;;;;;24.65;59.47;95406.09;5113361;28;20434;-76
2023/09/06 10:30:42;;;;;;;9.63;7.90;;;;;;;24.42;60.95;95394.09;5113218;28;20435;-76
2023/09/06 10:33:09;;;;;;;9.87;8.87;;;;;;;24.58;61.48;95396.41;5113410;28;20443;-74
2023/09/06 10:35:42;;;;;;;10.80;8.23;;;;;;;24.47;61.46;95386.25;5113087;28;20486;-75
2023/09/06 10:38:14;;;;;;;7.90;6.87;;;;;;;24.38;61.96;95388.31;5113068;28;20511;-74
2023/09/06 10:41:08;;;;;;;9.50;8.07;;;;;;;24.15;61.99;95393.16;5112921;28;20925;-74
2023/09/06 10:43:55;;;;;;;12.30;8.57;;;;;;;24.25;62.72;95389.03;5113072;28;20443;-76
2023/09/06 10:46:26;;;;;;;14.37;7.17;;;;;;;24.19;64.20;95386.34;5050071;28;20481;-75
2023/09/06 10:49:15;;;;;;;8.93;8.23;;;;;;;24.18;63.54;95382.84;5049837;28;20453;-77
2023/09/06 10:52:00;;;;;;;8.97;8.13;;;;;;;24.20;62.23;95385.31;5000296;28;20480;-76
2023/09/06 10:54:34;;;;;;;11.53;8.13;;;;;;;24.19;63.65;95381.00;5010224;28;20521;-79
2023/09/06 10:57:03;;;;;;;11.50;8.50;;;;;;;24.23;62.67;95383.06;5010201;28;20448;-78
2023/09/06 10:59:31;;;;;;;11.07;7.80;;;;;;;24.53;63.38;95375.53;5010260;28;20447;-80
2023/09/06 11:02:27;;;;;;;9.53;7.77;;;;;;;24.90;62.21;95384.84;5010166;28;20540;-79
2023/09/06 11:05:08;;;;;;;10.00;7.90;;;;;;;24.93;58.27;95375.56;4971064;28;20453;-78
2023/09/06 11:07:41;;;;;;;10.33;8.60;;;;;;;24.92;57.06;95381.97;4971070;28;20441;-79
2023/09/06 11:10:09;;;;;;;11.10;7.23;;;;;;;24.82;57.49;95387.72;4971210;28;20441;-79
2023/09/06 11:12:37;;;;;;;10.70;8.80;;;;;;;24.67;57.82;95382.56;4955018;28;20445;-76
2023/09/06 11:15:05;;;;;;;8.90;8.00;;;;;;;24.75;58.50;95378.03;4970907;28;20448;-77
2023/09/06 11:17:32;;;;;;;9.20;8.20;;;;;;;24.75;57.83;95373.47;4991248;28;20483;-77
2023/09/06 11:20:12;;;;;;;9.20;8.27;;;;;;;24.85;57.97;95371.19;5009898;28;20443;-77
2023/09/06 11:22:48;;;;;;;15.13;8.77;;;;;;;24.80;58.52;95371.00;5009983;28;20526;-77
2023/09/06 11:25:18;;;;;;;11.23;8.43;;;;;;;24.65;58.61;95368.53;5009900;28;20832;-77
2023/09/06 11:27:46;;;;;;;12.30;8.30;;;;;;;24.48;58.36;95367.25;5009991;28;20460;-77
2023/09/06 11:30:21;;;;;;;8.37;7.57;;;;;;;24.32;63.08;95362.28;5009944;28;20479;-76
2023/09/06 11:32:48;;;;;;;10.57;7.53;;;;;;;24.25;64.77;95362.22;5047308;28;20536;-77
2023/09/06 11:35:16;;;;;;;11.17;8.17;;;;;;;24.40;65.94;95359.41;5049673;28;20525;-77
2023/09/06 11:37:49;;;;;;;10.00;8.10;;;;;;;24.34;66.42;95350.34;5049338;28;20496;-77
2023/09/06 11:40:18;;;;;;;8.03;6.90;;;;;;;24.31;65.56;95357.97;5070535;28;20495;-77